Time;durP1;ratioP1;P1;durP2;ratioP2;P2;SDS_P1;SDS_P2;PMS_P1;PMS_P2;Temp;Humidity;BMP_temperature;BMP_pressure;BME280_temperature;BME280_humidity;BME280_pressure;Samples;Min_cycle;Max_cycle;Signal;HPM_P1;HPM_P2
2022/06/28 00:01:55;;;;;;;7.90;2.67;;;;;;;;;;5007800;28;20532;-82
2022/06/28 00:04:21;;;;;;;7.28;2.20;;;;;;;;;;5005914;28;20393;-83
2022/06/28 00:06:47;;;;;;;7.80;2.33;;;;;;;;;;5009869;28;20136;-82
2022/06/28 00:09:14;;;;;;;7.80;2.15;;;;;;;;;;5006496;28;20477;-84
2022/06/28 00:11:40;;;;;;;7.50;2.40;;;;;;;;;;5007150;28;20099;-83
2022/06/28 00:16:04;;;;;;;9.20;2.58;;;;;;;;;;5002644;28;20038;-83
2022/06/28 00:16:53;;;;;;;8.50;2.65;;;;;;;;;;4998402;28;20057;-83
2022/06/28 00:19:19;;;;;;;6.30;2.33;;;;;;;;;;5002370;28;20057;-82
2022/06/28 00:21:45;;;;;;;9.15;2.65;;;;;;;;;;5004704;28;20466;-82
2022/06/28 00:24:12;;;;;;;6.53;2.58;;;;;;;;;;5006195;28;20058;-83
2022/06/28 00:26:38;;;;;;;8.02;2.40;;;;;;;;;;5005323;28;20108;-83
2022/06/28 00:29:04;;;;;;;8.63;2.65;;;;;;;;;;5003765;28;20049;-84
2022/06/28 00:31:30;;;;;;;8.18;2.70;;;;;;;;;;5003115;28;20052;-82
2022/06/28 00:33:56;;;;;;;6.22;2.47;;;;;;;;;;5007207;28;20402;-85
2022/06/28 00:36:22;;;;;;;6.32;2.40;;;;;;;;;;5008291;28;20045;-81
2022/06/28 00:38:48;;;;;;;9.02;2.53;;;;;;;;;;5006752;28;20054;-83
2022/06/28 00:41:14;;;;;;;10.77;2.63;;;;;;;;;;5005797;28;20042;-82
2022/06/28 00:43:40;;;;;;;6.72;2.15;;;;;;;;;;5003887;28;20038;-82
2022/06/28 00:46:09;;;;;;;6.75;2.00;;;;;;;;;;5005842;28;20041;-83
2022/06/28 00:48:35;;;;;;;5.32;2.30;;;;;;;;;;5003553;28;20413;-82
2022/06/28 00:51:02;;;;;;;6.00;2.10;;;;;;;;;;5007088;28;20045;-83
2022/06/28 00:53:28;;;;;;;5.43;2.00;;;;;;;;;;5004363;28;20045;-83
2022/06/28 00:55:54;;;;;;;3.38;1.77;;;;;;;;;;5007051;28;20038;-84
2022/06/28 00:58:20;;;;;;;5.00;1.88;;;;;;;;;;5007660;28;20504;-83
2022/06/28 01:00:50;;;;;;;2.95;1.52;;;;;;;;;;5005276;28;20049;-82
2022/06/28 01:03:17;;;;;;;3.40;1.50;;;;;;;;;;5006002;28;20125;-82
2022/06/28 01:05:43;;;;;;;2.40;1.33;;;;;;;;;;5003681;28;20104;-82
2022/06/28 01:08:10;;;;;;;2.63;1.67;;;;;;;;;;5002424;28;20038;-83
2022/06/28 01:10:37;;;;;;;3.05;1.30;;;;;;;;;;5006264;28;20050;-83
2022/06/28 01:13:03;;;;;;;2.88;1.35;;;;;;;;;;5003567;28;20044;-82
2022/06/28 01:15:29;;;;;;;2.25;1.30;;;;;;;;;;5006475;28;20049;-82
2022/06/28 01:17:59;;;;;;;3.33;1.40;;;;;;;;;;5007719;28;20038;-82
2022/06/28 01:20:25;;;;;;;3.78;1.30;;;;;;;;;;5004553;28;20085;-82
2022/06/28 01:22:53;;;;;;;2.13;1.27;;;;;;;;;;5005321;28;20480;-82
2022/06/28 01:25:19;;;;;;;2.05;1.35;;;;;;;;;;5007655;28;20088;-82
2022/06/28 01:27:45;;;;;;;2.47;1.35;;;;;;;;;;5005456;28;20394;-83
2022/06/28 01:30:11;;;;;;;3.28;1.23;;;;;;;;;;5000737;28;20077;-82
2022/06/28 01:32:38;;;;;;;1.83;1.30;;;;;;;;;;5005825;28;20058;-81
2022/06/28 01:35:04;;;;;;;3.33;1.40;;;;;;;;;;5002983;28;20053;-82
2022/06/28 01:37:30;;;;;;;2.67;1.30;;;;;;;;;;5006145;28;20501;-82
2022/06/28 01:39:57;;;;;;;2.65;1.30;;;;;;;;;;5004816;28;20505;-82
2022/06/28 01:42:23;;;;;;;1.63;1.30;;;;;;;;;;5008198;28;20041;-82
2022/06/28 01:44:52;;;;;;;2.05;1.30;;;;;;;;;;5011675;28;20517;-81
2022/06/28 01:47:18;;;;;;;4.57;1.40;;;;;;;;;;5010404;28;20049;-81
2022/06/28 01:49:44;;;;;;;2.92;1.38;;;;;;;;;;5008499;28;20042;-82
2022/06/28 01:52:10;;;;;;;3.40;1.30;;;;;;;;;;5009705;28;20053;-83
2022/06/28 01:54:36;;;;;;;2.17;1.45;;;;;;;;;;5010688;28;20125;-83
2022/06/28 01:57:03;;;;;;;3.72;1.40;;;;;;;;;;5007769;28;20046;-82
2022/06/28 01:59:29;;;;;;;3.03;1.40;;;;;;;;;;5009078;28;20054;-83
2022/06/28 02:01:55;;;;;;;2.92;1.40;;;;;;;;;;5003499;28;20046;-82
2022/06/28 02:04:22;;;;;;;3.92;1.70;;;;;;;;;;5007222;28;20045;-82
2022/06/28 02:06:48;;;;;;;2.55;1.35;;;;;;;;;;5010145;28;20044;-82
2022/06/28 02:09:14;;;;;;;3.95;1.48;;;;;;;;;;5008420;28;20045;-82
2022/06/28 02:11:41;;;;;;;3.78;1.50;;;;;;;;;;5011575;28;20133;-82
2022/06/28 02:14:07;;;;;;;2.97;1.50;;;;;;;;;;5010642;28;20046;-82
2022/06/28 02:16:33;;;;;;;5.25;1.70;;;;;;;;;;5008555;28;20113;-82
2022/06/28 02:18:59;;;;;;;3.15;1.45;;;;;;;;;;5011362;28;20049;-82
2022/06/28 02:21:25;;;;;;;4.10;1.60;;;;;;;;;;5009422;28;20880;-82
2022/06/28 02:23:51;;;;;;;3.75;1.60;;;;;;;;;;5008176;28;20060;-81
2022/06/28 02:26:17;;;;;;;4.10;1.60;;;;;;;;;;5008270;28;20101;-82
2022/06/28 02:28:43;;;;;;;6.00;1.80;;;;;;;;;;5007567;28;20128;-81
2022/06/28 02:31:10;;;;;;;6.90;2.00;;;;;;;;;;5008659;28;20080;-82
2022/06/28 02:33:36;;;;;;;6.40;1.67;;;;;;;;;;5006741;28;20041;-82
2022/06/28 02:41:33;;;;;;;3.50;1.63;;;;;;;;;;5008994;28;20046;-81
2022/06/28 02:43:59;;;;;;;3.25;1.48;;;;;;;;;;5004588;28;20038;-83
2022/06/28 02:46:28;;;;;;;3.90;1.55;;;;;;;;;;5004422;28;20753;-82
2022/06/28 02:48:54;;;;;;;4.82;1.73;;;;;;;;;;5011547;28;20132;-83
2022/06/28 02:51:20;;;;;;;1.88;1.50;;;;;;;;;;5007289;28;20046;-83
2022/06/28 02:53:46;;;;;;;4.47;1.63;;;;;;;;;;5006959;28;20129;-83
2022/06/28 02:56:12;;;;;;;4.05;1.98;;;;;;;;;;5006202;28;20048;-83
2022/06/28 02:58:38;;;;;;;4.38;1.80;;;;;;;;;;5010745;28;20042;-83
2022/06/28 03:01:04;;;;;;;6.53;1.70;;;;;;;;;;5005339;28;20056;-83
2022/06/28 03:03:31;;;;;;;5.95;1.80;;;;;;;;;;5008679;28;20046;-82
2022/06/28 03:05:57;;;;;;;3.55;1.67;;;;;;;;;;5009958;28;20121;-82
2022/06/28 03:08:23;;;;;;;5.28;1.70;;;;;;;;;;5008903;28;20042;-82
2022/06/28 03:10:49;;;;;;;4.65;1.83;;;;;;;;;;5008520;28;20432;-82
2022/06/28 03:13:15;;;;;;;6.00;1.65;;;;;;;;;;5009846;28;20034;-82
2022/06/28 03:15:41;;;;;;;4.90;1.60;;;;;;;;;;5007710;28;20108;-83
2022/06/28 03:18:07;;;;;;;4.88;1.90;;;;;;;;;;5009514;28;20573;-82
2022/06/28 03:20:33;;;;;;;4.35;1.90;;;;;;;;;;5008081;28;20073;-82
2022/06/28 03:22:59;;;;;;;6.72;2.15;;;;;;;;;;5006519;28;20049;-83
2022/06/28 03:25:26;;;;;;;5.22;1.60;;;;;;;;;;5010247;28;21929;-83
2022/06/28 03:27:52;;;;;;;4.53;1.60;;;;;;;;;;5003576;28;20068;-82
2022/06/28 03:30:18;;;;;;;4.50;2.20;;;;;;;;;;5001907;28;20486;-83
2022/06/28 03:32:44;;;;;;;3.45;1.63;;;;;;;;;;5005127;28;20422;-83
2022/06/28 03:35:10;;;;;;;4.10;2.00;;;;;;;;;;5009699;28;20052;-82
2022/06/28 03:37:36;;;;;;;5.82;1.80;;;;;;;;;;5002279;28;20125;-83
2022/06/28 03:40:03;;;;;;;4.72;1.80;;;;;;;;;;5005353;28;20052;-84
2022/06/28 03:42:29;;;;;;;4.63;1.92;;;;;;;;;;5007162;28;20050;-82
2022/06/28 03:44:55;;;;;;;4.20;1.50;;;;;;;;;;5008688;28;20042;-83
2022/06/28 03:47:21;;;;;;;6.53;1.80;;;;;;;;;;5006381;28;20050;-83
2022/06/28 03:49:50;;;;;;;4.53;1.70;;;;;;;;;;5008676;28;20490;-81
2022/06/28 03:52:16;;;;;;;3.85;1.77;;;;;;;;;;5007306;28;20441;-80
2022/06/28 03:54:43;;;;;;;5.63;1.95;;;;;;;;;;5010778;28;20033;-82
2022/06/28 03:57:09;;;;;;;5.63;1.83;;;;;;;;;;5007214;28;20050;-83
2022/06/28 03:59:38;;;;;;;4.40;2.17;;;;;;;;;;5008557;28;20052;-82
2022/06/28 04:02:05;;;;;;;4.45;1.90;;;;;;;;;;5002034;28;20038;-82
2022/06/28 04:04:32;;;;;;;5.78;1.90;;;;;;;;;;5007097;28;20505;-82
2022/06/28 04:06:58;;;;;;;6.70;1.90;;;;;;;;;;5007866;28;20052;-83
2022/06/28 04:09:24;;;;;;;3.42;2.10;;;;;;;;;;5003309;28;20077;-82
2022/06/28 04:11:50;;;;;;;2.90;1.73;;;;;;;;;;5003097;28;20053;-81
2022/06/28 04:14:16;;;;;;;4.07;1.73;;;;;;;;;;5004220;28;20046;-80
2022/06/28 04:16:42;;;;;;;2.80;1.80;;;;;;;;;;4997437;28;20092;-82
2022/06/28 04:19:11;;;;;;;4.00;1.90;;;;;;;;;;5004011;28;20123;-81
2022/06/28 04:21:37;;;;;;;7.60;2.00;;;;;;;;;;5005666;28;20100;-82
2022/06/28 04:24:04;;;;;;;2.75;1.73;;;;;;;;;;5009163;28;20107;-82
2022/06/28 04:26:30;;;;;;;4.60;1.92;;;;;;;;;;5002161;28;20045;-80
2022/06/28 04:28:56;;;;;;;1.77;1.67;;;;;;;;;;5007785;28;20041;-82
2022/06/28 04:31:22;;;;;;;3.35;1.70;;;;;;;;;;5008351;28;20497;-82
2022/06/28 04:33:48;;;;;;;3.92;1.60;;;;;;;;;;5007414;28;20034;-82
2022/06/28 04:36:14;;;;;;;1.95;1.40;;;;;;;;;;5006390;28;20046;-83
2022/06/28 04:38:40;;;;;;;3.28;1.60;;;;;;;;;;5006299;28;20042;-83
2022/06/28 04:41:06;;;;;;;1.45;1.35;;;;;;;;;;5008082;28;20069;-82
2022/06/28 04:43:32;;;;;;;3.25;1.50;;;;;;;;;;5003775;28;20050;-83
2022/06/28 04:45:59;;;;;;;2.70;1.52;;;;;;;;;;5002586;28;20124;-83
2022/06/28 04:48:25;;;;;;;4.25;1.70;;;;;;;;;;5002190;28;21476;-82
2022/06/28 04:50:51;;;;;;;6.65;1.83;;;;;;;;;;5005894;28;20124;-84
2022/06/28 04:53:17;;;;;;;8.15;2.40;;;;;;;;;;5006554;28;20042;-82
2022/06/28 04:55:43;;;;;;;7.53;2.20;;;;;;;;;;5006814;28;20100;-83
2022/06/28 04:58:09;;;;;;;5.05;1.90;;;;;;;;;;5005213;28;20076;-84
2022/06/28 05:00:35;;;;;;;7.35;2.20;;;;;;;;;;5002859;28;20041;-83
2022/06/28 05:03:04;;;;;;;6.18;2.05;;;;;;;;;;5007272;28;20049;-83
2022/06/28 05:05:30;;;;;;;6.72;2.20;;;;;;;;;;5008096;28;20250;-82
2022/06/28 05:07:56;;;;;;;9.55;5.63;;;;;;;;;;5001588;28;20587;-83
2022/06/28 05:10:22;;;;;;;7.10;2.35;;;;;;;;;;5006429;28;20149;-83
2022/06/28 05:12:48;;;;;;;4.32;1.75;;;;;;;;;;5009721;28;20042;-82
2022/06/28 05:15:14;;;;;;;4.63;2.20;;;;;;;;;;5003524;28;20080;-82
2022/06/28 05:17:41;;;;;;;5.03;2.03;;;;;;;;;;5009073;28;20308;-82
2022/06/28 05:20:07;;;;;;;5.50;2.25;;;;;;;;;;5010495;28;20061;-83
2022/06/28 05:22:33;;;;;;;5.22;2.22;;;;;;;;;;5008686;28;20058;-83
2022/06/28 05:24:59;;;;;;;9.35;2.80;;;;;;;;;;5011483;28;20038;-83
2022/06/28 05:27:25;;;;;;;6.47;2.30;;;;;;;;;;5012070;28;20052;-82
2022/06/28 05:29:51;;;;;;;5.82;2.22;;;;;;;;;;5001204;28;20421;-83
2022/06/28 05:32:17;;;;;;;7.35;2.20;;;;;;;;;;5007295;28;20505;-82
2022/06/28 05:34:43;;;;;;;7.72;2.10;;;;;;;;;;5008575;28;20046;-82
2022/06/28 05:37:11;;;;;;;5.85;2.47;;;;;;;;;;5011164;28;20048;-83
2022/06/28 05:39:37;;;;;;;8.68;2.30;;;;;;;;;;5007307;28;20045;-82
2022/06/28 05:42:03;;;;;;;6.82;2.50;;;;;;;;;;5008045;28;20793;-82
2022/06/28 05:44:29;;;;;;;7.53;2.50;;;;;;;;;;5010634;28;20060;-81
2022/06/28 05:46:55;;;;;;;6.05;2.53;;;;;;;;;;5010482;28;20042;-82
2022/06/28 05:49:21;;;;;;;4.43;2.10;;;;;;;;;;5006875;28;20100;-82
2022/06/28 05:51:50;;;;;;;5.50;2.03;;;;;;;;;;5008457;28;20049;-81
2022/06/28 05:54:16;;;;;;;5.43;2.20;;;;;;;;;;5008671;28;20038;-82
2022/06/28 05:56:42;;;;;;;4.85;2.13;;;;;;;;;;5010242;28;20049;-82
2022/06/28 05:59:08;;;;;;;5.40;2.30;;;;;;;;;;5008727;28;20042;-81
2022/06/28 06:01:34;;;;;;;8.35;2.67;;;;;;;;;;5007929;28;20056;-81
2022/06/28 06:04:00;;;;;;;5.32;2.20;;;;;;;;;;5008164;28;20046;-81
2022/06/28 06:06:26;;;;;;;9.50;2.13;;;;;;;;;;5009576;28;20483;-80
2022/06/28 06:08:53;;;;;;;7.97;2.33;;;;;;;;;;5009079;28;20034;-80
2022/06/28 06:11:19;;;;;;;6.72;2.30;;;;;;;;;;5008937;28;20084;-80
2022/06/28 06:13:45;;;;;;;8.00;2.30;;;;;;;;;;5011907;28;20485;-81
2022/06/28 06:16:18;;;;;;;7.80;2.30;;;;;;;;;;5009543;28;20042;-81
2022/06/28 06:18:44;;;;;;;7.82;2.55;;;;;;;;;;5003598;28;20112;-79
2022/06/28 06:21:10;;;;;;;4.95;2.08;;;;;;;;;;5011309;28;20053;-80
2022/06/28 06:23:36;;;;;;;6.82;2.60;;;;;;;;;;5007189;28;20374;-80
2022/06/28 06:26:02;;;;;;;9.00;2.75;;;;;;;;;;5008638;28;20389;-81
2022/06/28 06:28:28;;;;;;;6.63;2.40;;;;;;;;;;5009774;28;20504;-81
2022/06/28 06:30:54;;;;;;;8.95;2.30;;;;;;;;;;5007219;28;20046;-81
2022/06/28 06:33:20;;;;;;;3.10;2.10;;;;;;;;;;5007625;28;20046;-80
2022/06/28 06:35:46;;;;;;;7.63;2.38;;;;;;;;;;5010167;28;20092;-80
2022/06/28 06:38:12;;;;;;;6.32;2.00;;;;;;;;;;5008104;28;20077;-81
2022/06/28 06:40:38;;;;;;;4.70;1.70;;;;;;;;;;5009161;28;20627;-81
2022/06/28 06:43:04;;;;;;;6.38;2.10;;;;;;;;;;5010111;28;20477;-82
2022/06/28 06:45:30;;;;;;;5.38;2.10;;;;;;;;;;5008391;28;20042;-81
2022/06/28 06:47:56;;;;;;;7.00;2.28;;;;;;;;;;5009052;28;20141;-80
2022/06/28 06:50:23;;;;;;;3.55;1.80;;;;;;;;;;5016302;28;20052;-80
2022/06/28 06:52:49;;;;;;;7.95;1.98;;;;;;;;;;5011190;28;20128;-80
2022/06/28 06:55:16;;;;;;;7.75;2.33;;;;;;;;;;5010914;28;20069;-80
2022/06/28 06:57:45;;;;;;;3.97;1.90;;;;;;;;;;5007224;28;20050;-81
2022/06/28 07:00:12;;;;;;;3.83;2.30;;;;;;;;;;5010855;28;20042;-81
2022/06/28 07:02:41;;;;;;;4.72;2.00;;;;;;;;;;5009545;28;20037;-80
2022/06/28 07:05:07;;;;;;;6.50;2.10;;;;;;;;;;5010935;28;20503;-80
2022/06/28 07:07:37;;;;;;;6.22;2.53;;;;;;;;;;5011787;28;20050;-80
2022/06/28 07:10:03;;;;;;;7.45;2.13;;;;;;;;;;5006796;28;20073;-81
2022/06/28 07:12:30;;;;;;;7.22;2.10;;;;;;;;;;5010147;28;20042;-81
2022/06/28 07:14:56;;;;;;;4.47;2.22;;;;;;;;;;5009832;28;20050;-81
2022/06/28 07:17:22;;;;;;;5.88;2.05;;;;;;;;;;5009085;28;20045;-80
2022/06/28 07:19:48;;;;;;;6.55;2.30;;;;;;;;;;5011058;28;20058;-79
2022/06/28 07:22:14;;;;;;;5.22;2.10;;;;;;;;;;5010399;28;20105;-79
2022/06/28 07:24:40;;;;;;;6.75;2.10;;;;;;;;;;5010856;28;20121;-80
2022/06/28 07:27:06;;;;;;;7.55;2.28;;;;;;;;;;5012701;28;20065;-80
2022/06/28 07:29:32;;;;;;;5.93;2.03;;;;;;;;;;5010093;28;20502;-79
2022/06/28 07:31:58;;;;;;;6.03;1.80;;;;;;;;;;5008135;28;20700;-80
2022/06/28 07:34:24;;;;;;;5.28;2.00;;;;;;;;;;5011195;28;20042;-80
2022/06/28 07:36:50;;;;;;;4.78;1.75;;;;;;;;;;5002554;28;20068;-80
2022/06/28 07:39:18;;;;;;;7.57;1.80;;;;;;;;;;5008655;28;20100;-80
2022/06/28 07:41:44;;;;;;;4.35;1.92;;;;;;;;;;5006989;28;20059;-80
2022/06/28 07:44:10;;;;;;;5.93;2.10;;;;;;;;;;5005190;28;20069;-81
2022/06/28 07:46:36;;;;;;;6.03;2.03;;;;;;;;;;5004442;28;20046;-81
2022/06/28 07:49:03;;;;;;;4.32;1.90;;;;;;;;;;5007444;28;20042;-80
2022/06/28 07:54:13;;;;;;;2.50;1.73;;;;;;;;;;5009936;28;20509;-81
2022/06/28 07:56:39;;;;;;;3.20;1.80;;;;;;;;;;5008077;28;20046;-80
2022/06/28 07:59:05;;;;;;;5.38;2.05;;;;;;;;;;5009977;28;20042;-81
2022/06/28 08:01:31;;;;;;;4.75;1.73;;;;;;;;;;5007333;28;20061;-79
2022/06/28 08:04:00;;;;;;;3.78;1.70;;;;;;;;;;5005652;28;20046;-80
2022/06/28 08:06:27;;;;;;;6.32;2.00;;;;;;;;;;5006175;28;21135;-80
2022/06/28 08:08:53;;;;;;;6.40;1.90;;;;;;;;;;5003873;28;20045;-80
2022/06/28 08:11:19;;;;;;;4.50;1.75;;;;;;;;;;5004794;28;20037;-80
2022/06/28 08:13:48;;;;;;;4.30;1.70;;;;;;;;;;5004521;28;20184;-80
2022/06/28 08:16:14;;;;;;;6.30;1.80;;;;;;;;;;5005502;28;20444;-81
2022/06/28 08:18:40;;;;;;;4.22;2.03;;;;;;;;;;5009019;28;20086;-79
2022/06/28 08:21:06;;;;;;;4.65;2.00;;;;;;;;;;5005787;28;20441;-80
2022/06/28 08:23:32;;;;;;;3.47;1.88;;;;;;;;;;5004313;28;20394;-80
2022/06/28 08:25:58;;;;;;;3.83;1.80;;;;;;;;;;5006115;28;20505;-80
2022/06/28 08:28:24;;;;;;;5.90;1.83;;;;;;;;;;5009770;28;20133;-81
2022/06/28 08:30:50;;;;;;;5.13;2.00;;;;;;;;;;5006481;28;20612;-81
2022/06/28 08:33:19;;;;;;;4.30;2.10;;;;;;;;;;5005358;28;20042;-81
2022/06/28 08:35:45;;;;;;;6.15;1.85;;;;;;;;;;5007870;28;20486;-80
2022/06/28 08:38:11;;;;;;;5.85;2.00;;;;;;;;;;5005888;28;20057;-81
2022/06/28 08:40:38;;;;;;;7.25;2.10;;;;;;;;;;5006884;28;20042;-80
2022/06/28 08:43:06;;;;;;;5.55;2.00;;;;;;;;;;5000779;28;20481;-81
2022/06/28 08:45:32;;;;;;;4.20;2.00;;;;;;;;;;5008366;28;20053;-80
2022/06/28 08:48:01;;;;;;;4.25;1.88;;;;;;;;;;5010140;28;20077;-81
2022/06/28 08:50:27;;;;;;;5.07;1.80;;;;;;;;;;5005456;28;20053;-82
2022/06/28 08:52:54;;;;;;;4.25;2.00;;;;;;;;;;5000091;28;20037;-81
2022/06/28 08:55:21;;;;;;;7.60;2.20;;;;;;;;;;5005774;28;20053;-81
2022/06/28 08:57:47;;;;;;;6.32;2.08;;;;;;;;;;5008387;28;20045;-81
2022/06/28 09:00:13;;;;;;;5.82;2.08;;;;;;;;;;5008272;28;20063;-81
2022/06/28 09:02:40;;;;;;;8.10;2.25;;;;;;;;;;5028933;28;20050;-80
2022/06/28 09:05:06;;;;;;;4.45;2.20;;;;;;;;;;5009752;28;20088;-81
2022/06/28 09:07:32;;;;;;;6.63;2.40;;;;;;;;;;5005737;28;20041;-80
2022/06/28 09:09:58;;;;;;;7.07;2.47;;;;;;;;;;5007745;28;20049;-81
2022/06/28 09:12:24;;;;;;;5.90;2.42;;;;;;;;;;5004193;28;20053;-80
2022/06/28 09:14:50;;;;;;;4.97;2.33;;;;;;;;;;5007122;28;20041;-81
2022/06/28 09:17:18;;;;;;;4.07;2.20;;;;;;;;;;5005160;28;20132;-80
2022/06/28 09:19:44;;;;;;;3.85;2.00;;;;;;;;;;5010591;28;20513;-79
2022/06/28 09:22:10;;;;;;;6.03;2.58;;;;;;;;;;5003771;28;20486;-80
2022/06/28 09:24:36;;;;;;;5.35;2.20;;;;;;;;;;5008193;28;20034;-80
2022/06/28 09:27:05;;;;;;;5.57;2.28;;;;;;;;;;5007805;28;20561;-80
2022/06/28 09:29:47;;;;;;;5.03;2.20;;;;;;;;;;5008835;28;20054;-81
2022/06/28 09:32:13;;;;;;;7.13;2.22;;;;;;;;;;5006243;28;20050;-81
2022/06/28 09:34:56;;;;;;;6.38;2.33;;;;;;;;;;5008818;28;20058;-80
2022/06/28 09:37:33;;;;;;;5.43;2.50;;;;;;;;;;5003615;28;20542;-80
2022/06/28 09:40:08;;;;;;;4.25;2.20;;;;;;;;;;5002658;28;20073;-80
2022/06/28 09:42:34;;;;;;;6.10;2.30;;;;;;;;;;5005373;28;20089;-81
2022/06/28 09:45:00;;;;;;;6.40;2.13;;;;;;;;;;5009986;28;20050;-81
2022/06/28 09:47:26;;;;;;;4.55;2.13;;;;;;;;;;5002961;28;21278;-82
2022/06/28 09:49:52;;;;;;;5.03;2.33;;;;;;;;;;5007708;28;20049;-80
2022/06/28 09:52:20;;;;;;;4.82;2.10;;;;;;;;;;5006286;28;20137;-83
2022/06/28 09:54:47;;;;;;;5.03;2.20;;;;;;;;;;5001048;28;20113;-83
2022/06/28 09:57:14;;;;;;;6.20;2.25;;;;;;;;;;5003617;28;20046;-83
2022/06/28 09:59:40;;;;;;;6.15;2.38;;;;;;;;;;5009792;28;20046;-81
2022/06/28 10:02:11;;;;;;;3.85;1.85;;;;;;;;;;5007770;28;20397;-81
2022/06/28 10:04:37;;;;;;;7.45;2.30;;;;;;;;;;5002761;28;20045;-80
2022/06/28 10:07:03;;;;;;;4.05;1.92;;;;;;;;;;5005931;28;20072;-80
2022/06/28 10:09:29;;;;;;;6.15;2.25;;;;;;;;;;5010282;28;20053;-81
2022/06/28 10:17:34;;;;;;;4.47;2.13;;;;;;;;;;5010631;28;20486;-81
2022/06/28 10:20:02;;;;;;;5.80;2.05;;;;;;;;;;5011616;28;20512;-80
2022/06/28 10:22:28;;;;;;;4.18;1.90;;;;;;;;;;5011318;28;20073;-80
2022/06/28 10:25:02;;;;;;;4.65;2.20;;;;;;;;;;5011276;28;20127;-80
2022/06/28 10:27:29;;;;;;;4.85;2.22;;;;;;;;;;5010707;28;20065;-80
2022/06/28 10:29:58;;;;;;;5.72;2.58;;;;;;;;;;5010478;28;20046;-80
2022/06/28 10:32:39;;;;;;;4.35;2.30;;;;;;;;;;5009077;28;20437;-80
2022/06/28 10:35:05;;;;;;;5.65;2.40;;;;;;;;;;5010747;28;20042;-80
2022/06/28 10:37:32;;;;;;;4.43;2.58;;;;;;;;;;5008738;28;20506;-80
2022/06/28 10:40:17;;;;;;;5.95;2.33;;;;;;;;;;5007998;28;20045;-80
2022/06/28 10:42:50;;;;;;;4.32;2.33;;;;;;;;;;5009822;28;20484;-80
2022/06/28 10:45:16;;;;;;;6.10;2.60;;;;;;;;;;5008597;28;20107;-80
2022/06/28 10:48:01;;;;;;;6.22;2.65;;;;;;;;;;5011154;28;20095;-80
2022/06/28 10:50:27;;;;;;;5.03;2.47;;;;;;;;;;5009202;28;20057;-79
2022/06/28 10:53:01;;;;;;;5.22;2.40;;;;;;;;;;5008782;28;20046;-80
2022/06/28 10:55:27;;;;;;;7.50;2.50;;;;;;;;;;5005464;28;20108;-81
2022/06/28 10:58:06;;;;;;;5.68;2.92;;;;;;;;;;5011960;28;20046;-81
2022/06/28 11:00:35;;;;;;;5.88;2.33;;;;;;;;;;5007713;28;20053;-80
2022/06/28 11:03:03;;;;;;;5.40;2.35;;;;;;;;;;5009260;28;20367;-79
2022/06/28 11:05:46;;;;;;;7.15;2.70;;;;;;;;;;5005129;28;20120;-79
2022/06/28 11:08:17;;;;;;;7.57;2.78;;;;;;;;;;5008301;28;20042;-80
2022/06/28 11:11:09;;;;;;;6.22;2.58;;;;;;;;;;5009796;28;20077;-79
2022/06/28 11:13:35;;;;;;;5.25;2.50;;;;;;;;;;5003178;28;20058;-80
2022/06/28 11:16:01;;;;;;;7.35;2.90;;;;;;;;;;5004969;28;20050;-80
2022/06/28 11:18:28;;;;;;;5.60;2.50;;;;;;;;;;5008785;28;20449;-80
2022/06/28 11:20:54;;;;;;;6.85;2.30;;;;;;;;;;5008890;28;20054;-80
2022/06/28 11:23:27;;;;;;;4.90;2.42;;;;;;;;;;5004245;28;20044;-79
2022/06/28 11:28:59;;;;;;;5.65;2.50;;;;;;;;;;5006125;28;20387;-79
2022/06/28 11:31:25;;;;;;;7.28;2.00;;;;;;;;;;5007152;28;20133;-80
2022/06/28 11:33:52;;;;;;;4.85;2.15;;;;;;;;;;5009266;28;20048;-80
2022/06/28 11:36:25;;;;;;;3.78;2.20;;;;;;;;;;5008325;28;20050;-80
2022/06/28 11:38:52;;;;;;;4.38;1.90;;;;;;;;;;5006632;28;20057;-79
2022/06/28 11:41:27;;;;;;;3.55;2.30;;;;;;;;;;5007152;28;20053;-80
2022/06/28 11:44:00;;;;;;;5.47;2.50;;;;;;;;;;5011567;28;20471;-80
2022/06/28 11:46:29;;;;;;;4.65;2.22;;;;;;;;;;5006919;28;20111;-80
2022/06/28 11:48:55;;;;;;;6.43;2.17;;;;;;;;;;5003746;28;20120;-80
2022/06/28 11:51:25;;;;;;;3.58;2.10;;;;;;;;;;5006426;28;20049;-80
2022/06/28 11:53:51;;;;;;;4.15;2.00;;;;;;;;;;5007974;28;20046;-79
2022/06/28 11:56:17;;;;;;;4.18;2.15;;;;;;;;;;5002169;28;20041;-80
2022/06/28 11:58:45;;;;;;;6.25;2.00;;;;;;;;;;5007771;28;20038;-80
2022/06/28 12:01:18;;;;;;;6.43;2.03;;;;;;;;;;5006453;28;20064;-79
2022/06/28 12:03:44;;;;;;;7.78;2.15;;;;;;;;;;4997110;28;20113;-80
2022/06/28 12:06:12;;;;;;;4.05;2.17;;;;;;;;;;5004816;28;20128;-79
2022/06/28 12:08:57;;;;;;;2.28;1.80;;;;;;;;;;5006268;28;20077;-80
2022/06/28 12:11:26;;;;;;;4.20;2.10;;;;;;;;;;5007438;28;20589;-79
2022/06/28 12:13:59;;;;;;;6.05;2.10;;;;;;;;;;5009998;28;20053;-80
2022/06/28 12:16:45;;;;;;;3.22;2.03;;;;;;;;;;5006796;28;20050;-80
2022/06/28 12:19:18;;;;;;;4.18;1.92;;;;;;;;;;5009063;28;20057;-80
2022/06/28 12:22:03;;;;;;;6.05;1.90;;;;;;;;;;5003073;28;20125;-80
2022/06/28 12:24:41;;;;;;;6.50;2.10;;;;;;;;;;5005828;28;20046;-80
2022/06/28 12:27:08;;;;;;;5.55;2.20;;;;;;;;;;5010059;28;20029;-80
2022/06/28 12:29:34;;;;;;;4.97;1.88;;;;;;;;;;5006812;28;20081;-80
2022/06/28 12:32:00;;;;;;;3.80;1.80;;;;;;;;;;5006773;28;20481;-80
2022/06/28 12:34:26;;;;;;;6.35;1.95;;;;;;;;;;5007818;28;20049;-79
2022/06/28 12:36:52;;;;;;;3.95;1.95;;;;;;;;;;5008951;28;20052;-80
2022/06/28 12:39:18;;;;;;;5.95;1.85;;;;;;;;;;5008602;28;20128;-79
2022/06/28 12:41:44;;;;;;;5.53;2.22;;;;;;;;;;5003283;28;20485;-80
2022/06/28 12:44:10;;;;;;;4.70;2.13;;;;;;;;;;5003909;28;20077;-81
2022/06/28 12:46:36;;;;;;;6.30;2.33;;;;;;;;;;5008818;28;20053;-81
2022/06/28 12:49:02;;;;;;;4.68;2.13;;;;;;;;;;5010638;28;20057;-80
2022/06/28 12:51:28;;;;;;;5.63;1.88;;;;;;;;;;5006188;28;20382;-80
2022/06/28 12:53:54;;;;;;;5.57;2.00;;;;;;;;;;5009681;28;20053;-80
2022/06/28 12:56:20;;;;;;;4.82;2.00;;;;;;;;;;5004414;28;20489;-81
2022/06/28 12:58:47;;;;;;;3.97;1.92;;;;;;;;;;5005080;28;20033;-81
2022/06/28 13:01:14;;;;;;;5.07;2.42;;;;;;;;;;5005213;28;20042;-80
2022/06/28 13:03:41;;;;;;;6.88;2.05;;;;;;;;;;5006549;28;20112;-81
2022/06/28 13:06:07;;;;;;;2.67;1.90;;;;;;;;;;5006368;28;20136;-81
2022/06/28 13:08:34;;;;;;;8.20;2.35;;;;;;;;;;5008449;28;20050;-80
2022/06/28 13:11:00;;;;;;;5.03;2.00;;;;;;;;;;5007701;28;20041;-81
2022/06/28 13:13:28;;;;;;;7.30;2.03;;;;;;;;;;5002685;28;21041;-81
2022/06/28 13:15:54;;;;;;;5.10;2.40;;;;;;;;;;5007806;28;20452;-81
2022/06/28 13:18:20;;;;;;;7.10;2.67;;;;;;;;;;5008172;28;20068;-81
2022/06/28 13:20:46;;;;;;;6.25;2.50;;;;;;;;;;5006888;28;20501;-80
2022/06/28 13:23:12;;;;;;;4.03;1.80;;;;;;;;;;5005390;28;20053;-81
2022/06/28 13:25:39;;;;;;;6.22;2.33;;;;;;;;;;5009221;28;20041;-81
2022/06/28 13:28:05;;;;;;;6.75;2.35;;;;;;;;;;5007814;28;20046;-81
2022/06/28 13:30:31;;;;;;;7.95;2.53;;;;;;;;;;5007981;28;20077;-80
2022/06/28 13:32:57;;;;;;;6.43;2.53;;;;;;;;;;5009432;28;20045;-81
2022/06/28 13:35:23;;;;;;;4.18;2.15;;;;;;;;;;5005270;28;20046;-81
2022/06/28 13:37:49;;;;;;;5.07;2.47;;;;;;;;;;5008660;28;20042;-80
2022/06/28 13:40:15;;;;;;;6.30;2.42;;;;;;;;;;5010726;28;20120;-81
2022/06/28 13:42:41;;;;;;;6.35;2.38;;;;;;;;;;5013457;28;20113;-82
2022/06/28 13:45:09;;;;;;;5.40;2.70;;;;;;;;;;5010854;28;20053;-81
2022/06/28 13:47:37;;;;;;;4.70;2.22;;;;;;;;;;5010885;28;20046;-82
2022/06/28 13:50:03;;;;;;;7.18;2.40;;;;;;;;;;5013051;28;20133;-81
2022/06/28 13:52:29;;;;;;;5.28;2.50;;;;;;;;;;5011653;28;20050;-81
2022/06/28 13:54:55;;;;;;;6.72;2.65;;;;;;;;;;5010445;28;20052;-81
2022/06/28 13:57:25;;;;;;;5.03;2.30;;;;;;;;;;5012478;28;20042;-81
2022/06/28 13:59:51;;;;;;;9.13;2.58;;;;;;;;;;5011651;28;20533;-81
2022/06/28 14:02:17;;;;;;;7.97;2.70;;;;;;;;;;5010428;28;20120;-82
2022/06/28 14:04:43;;;;;;;5.63;2.55;;;;;;;;;;5010398;28;20038;-81
2022/06/28 14:07:09;;;;;;;4.68;2.10;;;;;;;;;;5005781;28;20133;-79
2022/06/28 14:09:36;;;;;;;7.30;2.70;;;;;;;;;;5009222;28;20378;-77
2022/06/28 14:12:02;;;;;;;8.70;2.60;;;;;;;;;;5012455;28;20104;-79
2022/06/28 14:14:28;;;;;;;6.65;2.30;;;;;;;;;;5008675;28;20084;-82
2022/06/28 14:16:54;;;;;;;4.70;2.28;;;;;;;;;;5008837;28;20486;-78
2022/06/28 14:19:20;;;;;;;6.50;2.42;;;;;;;;;;5008536;28;20046;-81
2022/06/28 14:21:46;;;;;;;6.43;2.38;;;;;;;;;;5007277;28;20054;-85
2022/06/28 14:24:12;;;;;;;6.38;2.45;;;;;;;;;;5008859;28;20401;-81
2022/06/28 14:26:38;;;;;;;8.20;2.47;;;;;;;;;;5009325;28;20048;-82
2022/06/28 14:29:04;;;;;;;7.55;2.53;;;;;;;;;;5010802;28;20077;-83
2022/06/28 14:31:30;;;;;;;6.55;2.60;;;;;;;;;;5008767;28;20041;-84
2022/06/28 14:33:56;;;;;;;6.85;2.60;;;;;;;;;;5010606;28;20042;-83
2022/06/28 14:36:22;;;;;;;6.57;2.47;;;;;;;;;;5010049;28;20096;-82
2022/06/28 14:38:48;;;;;;;6.72;2.50;;;;;;;;;;5010677;28;20049;-82
2022/06/28 14:41:14;;;;;;;5.45;2.30;;;;;;;;;;5010603;28;20049;-83
2022/06/28 14:43:40;;;;;;;6.47;2.53;;;;;;;;;;5002694;28;20049;-83
2022/06/28 14:46:06;;;;;;;6.72;2.90;;;;;;;;;;5010781;28;20045;-83
2022/06/28 14:48:35;;;;;;;6.20;2.28;;;;;;;;;;5010001;28;20038;-83
2022/06/28 14:51:02;;;;;;;3.65;2.20;;;;;;;;;;5010639;28;20053;-82
2022/06/28 14:53:28;;;;;;;6.28;2.63;;;;;;;;;;5005895;28;20042;-85
2022/06/28 14:55:54;;;;;;;6.53;2.50;;;;;;;;;;5005023;28;20038;-80
2022/06/28 14:58:22;;;;;;;5.40;2.20;;;;;;;;;;5004642;28;20045;-82
2022/06/28 15:00:48;;;;;;;4.97;2.22;;;;;;;;;;5009058;28;20041;-82